Time;durP1;ratioP1;P1;durP2;ratioP2;P2;SDS_P1;SDS_P2;PMS_P1;PMS_P2;Temp;Humidity;BMP_temperature;BMP_pressure;BME280_temperature;BME280_humidity;BME280_pressure;Samples;Min_cycle;Max_cycle;Signal;HPM_P1;HPM_P2
2022/02/23 00:01:10;;;;;;;4.80;2.17;;;8.60;70.90;;;;;;4996173;28;20198;-86
2022/02/23 00:03:36;;;;;;;15.07;3.15;;;8.60;71.10;;;;;;4995670;28;20284;-86
2022/02/23 00:06:02;;;;;;;8.67;2.40;;;8.60;71.40;;;;;;4996091;28;20183;-86
2022/02/23 00:08:27;;;;;;;10.30;2.10;;;8.60;71.20;;;;;;4995888;28;20584;-86
2022/02/23 00:10:53;;;;;;;13.97;2.40;;;8.50;71.20;;;;;;4996080;28;20418;-85
2022/02/23 00:13:19;;;;;;;11.90;2.70;;;8.50;71.20;;;;;;4995464;28;20186;-85
2022/02/23 00:15:45;;;;;;;15.93;2.37;;;8.50;71.40;;;;;;4996041;28;20593;-86
2022/02/23 00:18:15;;;;;;;9.00;2.97;;;8.40;71.40;;;;;;5013655;28;20170;-86
2022/02/23 00:20:41;;;;;;;10.60;2.60;;;8.40;71.60;;;;;;4995030;28;20171;-86
2022/02/23 00:23:07;;;;;;;16.50;3.42;;;8.50;72.00;;;;;;4995502;28;20297;-87
2022/02/23 00:25:33;;;;;;;6.77;2.77;;;8.50;71.80;;;;;;4995978;28;20221;-87
2022/02/23 00:27:59;;;;;;;6.18;2.47;;;8.40;71.70;;;;;;4996307;28;20639;-86
2022/02/23 00:30:25;;;;;;;8.37;2.90;;;8.50;71.80;;;;;;4995710;28;20183;-86
2022/02/23 00:32:50;;;;;;;10.13;3.10;;;8.40;71.70;;;;;;5013591;28;20195;-86
2022/02/23 00:35:16;;;;;;;14.53;2.80;;;8.40;71.90;;;;;;4996331;28;20186;-86
2022/02/23 00:37:42;;;;;;;10.60;2.57;;;8.30;71.90;;;;;;4996484;28;20186;-86
2022/02/23 00:40:08;;;;;;;4.83;2.00;;;8.40;72.00;;;;;;4996444;28;20266;-86
2022/02/23 00:42:34;;;;;;;11.50;2.30;;;8.30;72.90;;;;;;5012923;28;20210;-86
2022/02/23 00:45:00;;;;;;;7.17;2.70;;;8.30;72.30;;;;;;5012861;28;20736;-86
2022/02/23 00:47:25;;;;;;;6.70;2.23;;;8.30;72.60;;;;;;4996045;28;20198;-86
2022/02/23 00:49:51;;;;;;;16.00;2.40;;;8.30;72.80;;;;;;5013399;28;20429;-86
2022/02/23 00:52:17;;;;;;;13.00;2.73;;;8.30;73.30;;;;;;4996085;28;20697;-85
2022/02/23 00:54:43;;;;;;;4.77;2.83;;;8.30;74.20;;;;;;4982765;28;20422;-86
2022/02/23 00:57:09;;;;;;;14.93;3.00;;;8.30;73.60;;;;;;5003026;28;20572;-86
2022/02/23 00:59:35;;;;;;;10.93;3.28;;;8.30;73.70;;;;;;4998522;28;20214;-86
2022/02/23 01:02:01;;;;;;;17.45;2.80;;;8.20;73.90;;;;;;5015114;28;20186;-86
2022/02/23 01:04:27;;;;;;;10.85;4.43;;;8.20;74.20;;;;;;4996546;28;20174;-87
2022/02/23 01:06:53;;;;;;;13.87;2.57;;;8.20;74.60;;;;;;4996331;28;20651;-86
2022/02/23 01:09:19;;;;;;;12.53;2.63;;;8.10;74.70;;;;;;4995813;28;20417;-86
2022/02/23 01:11:44;;;;;;;10.97;2.73;;;8.10;75.00;;;;;;4995050;28;20210;-86
2022/02/23 01:14:11;;;;;;;22.77;3.83;;;8.00;74.90;;;;;;4994960;28;20200;-86
2022/02/23 01:16:37;;;;;;;9.65;2.83;;;8.00;75.20;;;;;;4995527;28;20542;-86
2022/02/23 01:19:03;;;;;;;8.60;2.50;;;8.00;75.40;;;;;;4979008;28;20715;-86
2022/02/23 01:21:29;;;;;;;10.75;2.10;;;8.00;75.50;;;;;;4995298;28;20170;-86
2022/02/23 01:23:55;;;;;;;7.80;1.90;;;8.00;75.50;;;;;;4994810;28;20285;-86
2022/02/23 01:26:21;;;;;;;8.80;3.55;;;7.90;75.60;;;;;;4995588;28;20409;-86
2022/02/23 01:28:47;;;;;;;17.25;3.72;;;7.90;75.90;;;;;;5013019;28;20589;-87
2022/02/23 01:31:13;;;;;;;7.68;2.50;;;8.00;76.10;;;;;;5013539;28;20186;-85
2022/02/23 01:33:39;;;;;;;3.78;1.98;;;8.00;76.20;;;;;;4998744;28;20202;-85
2022/02/23 01:36:05;;;;;;;9.50;3.50;;;7.90;76.40;;;;;;4999104;28;20194;-86
2022/02/23 01:38:30;;;;;;;18.37;3.87;;;7.90;76.60;;;;;;4999721;28;20421;-86
2022/02/23 01:40:57;;;;;;;24.23;3.40;;;8.00;76.70;;;;;;5003932;28;20416;-86
2022/02/23 01:43:22;;;;;;;13.68;3.25;;;8.00;76.90;;;;;;5004516;28;20277;-85
2022/02/23 01:45:48;;;;;;;15.20;3.40;;;8.00;77.00;;;;;;5016800;28;20853;-86
2022/02/23 01:48:14;;;;;;;11.83;2.90;;;8.00;77.10;;;;;;4999607;28;20886;-86
2022/02/23 01:50:41;;;;;;;13.00;3.10;;;8.00;77.30;;;;;;5000101;28;20178;-85
2022/02/23 01:53:08;;;;;;;21.75;3.30;;;8.00;77.50;;;;;;5001085;28;20528;-85
2022/02/23 01:55:35;;;;;;;21.98;4.03;;;7.90;77.60;;;;;;4999260;28;20170;-86
2022/02/23 01:58:05;;;;;;;13.55;3.30;;;8.00;77.50;;;;;;5000943;28;20194;-85
2022/02/23 02:00:31;;;;;;;6.80;2.53;;;8.00;77.30;;;;;;5003844;28;20265;-86
2022/02/23 02:02:56;;;;;;;9.82;3.17;;;7.90;77.50;;;;;;5003548;28;20225;-86
2022/02/23 02:05:22;;;;;;;10.20;3.73;;;7.80;77.40;;;;;;5004720;28;20257;-86
2022/02/23 02:07:48;;;;;;;16.53;3.90;;;7.90;77.20;;;;;;4998621;28;20237;-86
2022/02/23 02:10:14;;;;;;;12.67;3.53;;;7.70;77.30;;;;;;4999155;28;20174;-87
2022/02/23 02:12:46;;;;;;;12.43;4.53;;;7.60;77.50;;;;;;4998491;28;20205;-86
2022/02/23 02:15:12;;;;;;;16.23;3.55;;;7.50;77.90;;;;;;4998277;28;20421;-86
2022/02/23 02:17:41;;;;;;;7.50;3.47;;;7.80;77.70;;;;;;5002702;28;20189;-86
2022/02/23 02:20:08;;;;;;;22.75;3.85;;;7.80;77.60;;;;;;4983304;28;20517;-87
2022/02/23 02:22:33;;;;;;;9.15;3.15;;;7.90;77.30;;;;;;4997798;28;20293;-85
2022/02/23 02:25:02;;;;;;;12.10;4.40;;;7.80;77.20;;;;;;4999169;28;20198;-86
2022/02/23 02:27:28;;;;;;;12.23;2.92;;;7.80;77.20;;;;;;4999774;28;20264;-86
2022/02/23 02:29:53;;;;;;;14.23;3.50;;;7.80;77.20;;;;;;5000253;28;20171;-86
2022/02/23 02:32:20;;;;;;;7.37;3.27;;;7.60;77.50;;;;;;4999464;28;20947;-87
2022/02/23 02:34:47;;;;;;;13.32;3.17;;;7.70;77.80;;;;;;4999163;28;20206;-86
2022/02/23 02:37:14;;;;;;;9.77;4.25;;;7.80;77.40;;;;;;4999030;28;20191;-86
2022/02/23 02:39:40;;;;;;;12.60;3.97;;;7.80;77.10;;;;;;5015825;28;20198;-86
2022/02/23 02:42:06;;;;;;;14.53;4.33;;;7.90;77.00;;;;;;5015474;28;20190;-86
2022/02/23 02:44:32;;;;;;;12.90;4.70;;;7.80;76.80;;;;;;5014102;28;20459;-86
2022/02/23 02:46:59;;;;;;;8.50;3.50;;;7.70;77.10;;;;;;5015219;28;20233;-86
2022/02/23 02:49:25;;;;;;;10.52;3.20;;;7.70;77.40;;;;;;4997417;28;20174;-86
2022/02/23 02:51:51;;;;;;;10.13;3.93;;;7.60;77.80;;;;;;4998253;28;20186;-87
2022/02/23 02:54:17;;;;;;;15.83;3.87;;;7.60;78.00;;;;;;5014476;28;20804;-87
2022/02/23 02:56:42;;;;;;;8.70;3.93;;;7.60;78.30;;;;;;4997374;28;20409;-86
2022/02/23 02:59:08;;;;;;;15.90;4.10;;;7.60;78.00;;;;;;4997480;28;20507;-86
2022/02/23 03:01:35;;;;;;;13.70;3.53;;;7.50;78.00;;;;;;5015120;28;20420;-86
2022/02/23 03:04:01;;;;;;;19.13;5.20;;;7.50;78.40;;;;;;4997073;28;20209;-86
2022/02/23 03:06:28;;;;;;;7.60;3.53;;;7.40;78.70;;;;;;4997462;28;20791;-86
2022/02/23 03:08:54;;;;;;;17.13;4.80;;;7.40;78.80;;;;;;4997346;28;20205;-86
2022/02/23 03:11:21;;;;;;;15.32;3.83;;;7.40;79.20;;;;;;5015111;28;20182;-86
2022/02/23 03:13:47;;;;;;;26.13;5.10;;;7.30;79.40;;;;;;4996649;28;20195;-86
2022/02/23 03:16:14;;;;;;;16.00;4.53;;;7.30;79.60;;;;;;4996831;28;20175;-86
2022/02/23 03:18:41;;;;;;;12.50;4.53;;;7.30;79.70;;;;;;5019592;28;20186;-86
2022/02/23 03:21:08;;;;;;;13.80;4.88;;;7.30;79.70;;;;;;5025568;28;20174;-86
2022/02/23 03:23:34;;;;;;;13.63;4.35;;;7.40;79.50;;;;;;4994587;28;20357;-86
2022/02/23 03:26:00;;;;;;;12.73;3.95;;;7.30;79.60;;;;;;4995028;28;20197;-86
2022/02/23 03:28:26;;;;;;;14.23;4.07;;;7.20;79.80;;;;;;4997158;28;20206;-86
2022/02/23 03:31:09;;;;;;;18.35;6.40;;;7.10;80.20;;;;;;5015023;28;20414;-87
2022/02/23 03:33:42;;;;;;;12.38;4.65;;;7.10;80.60;;;;;;5014843;28;20249;-86
2022/02/23 03:36:10;;;;;;;15.98;5.45;;;7.10;80.80;;;;;;4996985;28;20175;-86
2022/02/23 03:38:36;;;;;;;9.05;4.00;;;7.00;80.80;;;;;;4997258;28;20188;-86
2022/02/23 03:41:02;;;;;;;7.57;3.67;;;7.00;81.00;;;;;;5018868;28;20189;-87
2022/02/23 03:43:28;;;;;;;13.88;4.97;;;6.80;81.10;;;;;;4996148;28;20813;-86
2022/02/23 03:45:53;;;;;;;14.97;4.57;;;6.80;81.50;;;;;;4996944;28;20269;-87
2022/02/23 03:48:19;;;;;;;10.80;4.60;;;6.80;81.70;;;;;;5014536;28;20285;-86
2022/02/23 03:50:53;;;;;;;19.47;4.83;;;6.80;81.80;;;;;;4997271;28;20175;-86
2022/02/23 03:53:20;;;;;;;9.32;4.32;;;6.80;81.80;;;;;;4999056;28;20195;-86
2022/02/23 03:55:46;;;;;;;14.15;4.38;;;6.70;82.00;;;;;;5018415;28;20179;-87
2022/02/23 03:58:12;;;;;;;15.13;4.40;;;6.60;82.10;;;;;;4999624;28;20193;-86
2022/02/23 04:00:38;;;;;;;6.13;3.97;;;6.70;82.40;;;;;;4999410;28;20593;-87
2022/02/23 04:03:03;;;;;;;16.13;5.40;;;6.70;82.50;;;;;;4998244;28;20289;-87
2022/02/23 04:05:29;;;;;;;13.53;4.77;;;6.70;83.30;;;;;;4998097;28;20487;-87
2022/02/23 04:07:55;;;;;;;14.00;4.70;;;6.60;82.60;;;;;;4997195;28;20199;-86
2022/02/23 04:10:23;;;;;;;11.73;4.83;;;6.60;82.70;;;;;;4996784;28;20198;-86
2022/02/23 04:12:57;;;;;;;13.95;5.18;;;6.60;82.80;;;;;;4996271;28;20202;-86
2022/02/23 04:15:22;;;;;;;9.30;5.50;;;6.70;82.90;;;;;;4996429;28;20274;-87
2022/02/23 04:17:48;;;;;;;18.40;5.23;;;6.60;82.90;;;;;;4980024;28;20650;-86
2022/02/23 04:20:14;;;;;;;7.37;4.70;;;6.50;83.10;;;;;;4979777;28;20217;-86
2022/02/23 04:22:42;;;;;;;15.43;5.33;;;6.60;83.20;;;;;;4995311;28;20198;-86
2022/02/23 04:25:08;;;;;;;25.40;5.43;;;6.60;83.20;;;;;;4995214;28;20186;-86
2022/02/23 04:27:34;;;;;;;17.92;5.40;;;6.60;83.40;;;;;;4995519;28;20206;-86
2022/02/23 04:30:00;;;;;;;11.90;5.73;;;6.60;83.30;;;;;;4996006;28;20261;-86
2022/02/23 04:32:26;;;;;;;23.07;5.20;;;6.70;83.40;;;;;;5013438;28;20933;-86
2022/02/23 04:34:54;;;;;;;16.63;5.10;;;6.80;83.20;;;;;;4995464;28;20175;-86
2022/02/23 04:37:20;;;;;;;21.58;5.28;;;6.70;83.00;;;;;;4996281;28;20240;-86
2022/02/23 04:39:46;;;;;;;16.20;5.60;;;6.80;82.90;;;;;;4992901;28;20190;-86
2022/02/23 04:42:12;;;;;;;8.40;4.70;;;6.80;82.80;;;;;;4996132;28;20186;-87
2022/02/23 04:44:37;;;;;;;14.57;5.13;;;6.90;82.90;;;;;;4996600;28;20183;-86
2022/02/23 04:47:04;;;;;;;21.43;5.17;;;6.80;82.70;;;;;;4996339;28;20233;-86
2022/02/23 04:49:30;;;;;;;12.60;6.00;;;7.00;82.40;;;;;;4996795;28;20428;-86
2022/02/23 04:51:56;;;;;;;14.83;5.33;;;7.00;82.30;;;;;;5014476;28;20183;-86
2022/02/23 04:54:21;;;;;;;18.90;6.37;;;6.90;82.30;;;;;;5013519;28;20198;-86
2022/02/23 04:56:47;;;;;;;18.07;5.33;;;6.90;82.20;;;;;;5001503;28;20421;-86
2022/02/23 04:59:13;;;;;;;14.53;5.67;;;6.80;82.10;;;;;;5014902;28;20182;-87
2022/02/23 05:01:40;;;;;;;14.65;6.03;;;6.70;82.30;;;;;;4998806;28;20178;-87
2022/02/23 05:04:05;;;;;;;10.93;5.35;;;6.70;82.40;;;;;;4996571;28;20699;-86
2022/02/23 05:06:31;;;;;;;18.37;6.50;;;6.60;82.60;;;;;;4996426;28;20178;-86
2022/02/23 05:08:57;;;;;;;18.43;6.37;;;6.60;82.90;;;;;;5001064;28;20182;-86
2022/02/23 05:11:22;;;;;;;11.93;5.57;;;6.60;82.90;;;;;;5001703;28;20183;-87
2022/02/23 05:13:48;;;;;;;25.80;7.33;;;6.60;83.00;;;;;;4989227;28;20202;-87
2022/02/23 05:16:14;;;;;;;16.17;5.80;;;6.80;82.80;;;;;;5005079;28;20186;-88
2022/02/23 05:18:40;;;;;;;15.70;5.07;;;6.80;82.40;;;;;;5001253;28;20959;-86
2022/02/23 05:21:05;;;;;;;19.33;6.97;;;6.90;81.80;;;;;;5003980;28;20429;-87
2022/02/23 05:23:31;;;;;;;11.10;5.80;;;6.80;81.50;;;;;;5007486;28;20207;-87
2022/02/23 05:25:57;;;;;;;17.10;7.33;;;6.70;81.50;;;;;;5004997;28;20426;-87
2022/02/23 05:28:24;;;;;;;21.00;7.30;;;6.60;81.80;;;;;;5003267;28;20202;-87
2022/02/23 05:30:49;;;;;;;20.42;7.18;;;6.50;82.30;;;;;;5021461;28;20183;-87
2022/02/23 05:33:15;;;;;;;15.83;6.83;;;6.50;82.70;;;;;;5023693;28;20202;-87
2022/02/23 05:35:41;;;;;;;14.00;7.53;;;6.70;82.70;;;;;;5001913;28;20193;-86
2022/02/23 05:38:07;;;;;;;21.93;7.00;;;6.70;82.20;;;;;;5000325;28;20182;-87
2022/02/23 05:40:34;;;;;;;19.40;7.53;;;6.70;82.00;;;;;;4999298;28;20421;-86
2022/02/23 05:42:59;;;;;;;18.50;7.40;;;6.70;82.10;;;;;;4999102;28;20457;-86
2022/02/23 05:45:25;;;;;;;14.20;7.90;;;6.70;81.90;;;;;;5001603;28;20187;-87
2022/02/23 05:47:51;;;;;;;22.80;7.73;;;6.80;81.50;;;;;;5000107;28;20457;-87
2022/02/23 05:50:17;;;;;;;16.77;8.50;;;6.60;81.40;;;;;;5018609;28;20473;-86
2022/02/23 05:52:44;;;;;;;25.53;9.47;;;6.50;81.80;;;;;;5000674;28;20473;-87
2022/02/23 05:55:11;;;;;;;21.58;10.07;;;6.40;82.30;;;;;;5000132;28;20418;-87
2022/02/23 05:57:36;;;;;;;21.90;7.80;;;6.30;82.80;;;;;;5017083;28;20627;-87
2022/02/23 06:00:05;;;;;;;16.33;9.07;;;6.40;83.10;;;;;;4998952;28;20183;-86
2022/02/23 06:02:30;;;;;;;17.80;8.80;;;6.40;83.20;;;;;;5016880;28;20195;-86
2022/02/23 06:04:56;;;;;;;17.13;9.47;;;6.60;83.10;;;;;;4999473;28;20187;-87
2022/02/23 06:07:22;;;;;;;21.23;10.27;;;6.70;82.30;;;;;;5016984;28;20243;-87
2022/02/23 06:09:47;;;;;;;24.70;9.50;;;6.80;81.60;;;;;;4998553;28;20414;-87
2022/02/23 06:12:13;;;;;;;19.00;9.17;;;6.80;81.10;;;;;;4998989;28;20941;-88
2022/02/23 06:14:39;;;;;;;35.73;9.90;;;6.80;81.00;;;;;;5015892;28;20197;-86
2022/02/23 06:17:05;;;;;;;15.60;9.20;;;6.70;81.00;;;;;;5017204;28;20413;-86
2022/02/23 06:19:31;;;;;;;17.70;7.73;;;6.60;81.00;;;;;;4998929;28;20432;-87
2022/02/23 06:21:56;;;;;;;16.20;8.73;;;6.50;81.40;;;;;;4982547;28;20433;-87
2022/02/23 06:24:23;;;;;;;19.97;8.73;;;6.20;81.90;;;;;;5002988;28;20207;-87
2022/02/23 06:26:49;;;;;;;20.45;10.52;;;6.30;82.50;;;;;;4999412;28;20475;-87
2022/02/23 06:29:14;;;;;;;21.85;10.80;;;6.20;82.80;;;;;;4999068;28;20174;-87
2022/02/23 06:31:40;;;;;;;21.73;9.73;;;6.30;83.20;;;;;;4999831;28;20834;-87
2022/02/23 06:34:08;;;;;;;18.80;9.70;;;6.50;83.00;;;;;;4998779;28;20995;-87
2022/02/23 06:36:34;;;;;;;25.90;11.35;;;6.50;82.60;;;;;;5031609;28;20420;-87
2022/02/23 06:38:59;;;;;;;21.83;10.80;;;6.40;82.60;;;;;;5012123;28;20217;-87
2022/02/23 06:41:26;;;;;;;31.07;11.47;;;6.30;82.80;;;;;;5016942;28;20181;-88
2022/02/23 06:43:53;;;;;;;22.10;12.85;;;6.40;82.80;;;;;;4998357;28;20461;-88
2022/02/23 06:46:19;;;;;;;21.10;11.90;;;6.40;82.80;;;;;;4998899;28;20179;-88
2022/02/23 06:48:46;;;;;;;26.27;13.60;;;6.30;83.00;;;;;;4999624;28;20210;-87
2022/02/23 06:51:18;;;;;;;28.17;13.90;;;6.30;83.20;;;;;;5003217;28;20205;-88
2022/02/23 06:53:45;;;;;;;33.38;15.93;;;6.40;83.20;;;;;;5023094;28;20263;-87
2022/02/23 06:56:12;;;;;;;23.30;15.00;;;6.40;83.20;;;;;;5024686;28;20194;-88
2022/02/23 06:58:47;;;;;;;29.80;14.57;;;6.50;83.00;;;;;;5023595;28;20179;-87
2022/02/23 07:01:19;;;;;;;38.60;16.08;;;6.50;82.70;;;;;;5004865;28;20182;-88
2022/02/23 07:03:45;;;;;;;28.23;16.38;;;6.50;82.50;;;;;;4987199;28;20578;-87
2022/02/23 07:06:15;;;;;;;36.65;18.13;;;6.60;82.70;;;;;;5028733;28;20186;-87
2022/02/23 07:08:46;;;;;;;37.92;16.65;;;6.60;82.60;;;;;;4983483;28;20195;-87
2022/02/23 07:11:12;;;;;;;37.97;17.17;;;6.70;82.40;;;;;;5000339;28;20175;-87
2022/02/23 07:13:38;;;;;;;27.08;16.13;;;6.60;82.50;;;;;;5016500;28;20202;-88
2022/02/23 07:16:04;;;;;;;34.10;16.23;;;6.50;82.70;;;;;;5016719;28;20190;-87
2022/02/23 07:18:30;;;;;;;37.35;16.45;;;6.70;82.60;;;;;;5000181;28;21031;-88
2022/02/23 07:20:56;;;;;;;27.13;15.97;;;6.80;82.90;;;;;;5000285;28;20183;-88
2022/02/23 07:23:22;;;;;;;31.23;15.65;;;6.70;82.10;;;;;;4998730;28;20476;-88
2022/02/23 07:25:52;;;;;;;34.97;14.88;;;6.70;82.20;;;;;;4998513;28;20190;-88
2022/02/23 07:28:24;;;;;;;32.63;14.05;;;6.90;81.60;;;;;;5016045;28;20695;-88
2022/02/23 07:30:51;;;;;;;34.65;12.35;;;7.00;80.90;;;;;;4998037;28;20183;-88
2022/02/23 07:33:18;;;;;;;28.13;12.10;;;7.00;80.40;;;;;;4998078;28;20195;-88
2022/02/23 07:35:45;;;;;;;25.02;11.02;;;7.10;80.00;;;;;;4997428;28;20185;-87
2022/02/23 07:38:11;;;;;;;46.60;11.45;;;7.00;79.80;;;;;;4997757;28;20179;-88
2022/02/23 07:40:37;;;;;;;27.63;10.30;;;7.20;80.30;;;;;;4998006;28;20186;-88
2022/02/23 07:43:04;;;;;;;28.33;10.10;;;7.20;78.90;;;;;;4998751;28;20241;-88
2022/02/23 07:45:32;;;;;;;29.17;10.10;;;7.30;78.80;;;;;;5001956;28;20194;-87
2022/02/23 07:47:58;;;;;;;25.83;10.05;;;7.20;78.40;;;;;;4998340;28;20269;-88
2022/02/23 07:50:25;;;;;;;16.08;8.20;;;7.20;78.40;;;;;;4997964;28;20659;-88
2022/02/23 07:52:51;;;;;;;21.48;8.40;;;7.30;78.50;;;;;;5001062;28;20190;-87
2022/02/23 07:55:17;;;;;;;21.13;8.83;;;7.30;78.40;;;;;;5036201;28;20289;-87
2022/02/23 07:57:44;;;;;;;15.00;7.15;;;7.30;78.30;;;;;;5010462;28;20198;-87
2022/02/23 08:00:10;;;;;;;13.77;7.18;;;7.30;78.30;;;;;;4999220;28;20833;-88
2022/02/23 08:02:37;;;;;;;17.48;7.80;;;7.30;78.10;;;;;;5015195;28;20202;-87
2022/02/23 08:05:04;;;;;;;16.13;7.75;;;7.20;77.90;;;;;;4998191;28;20531;-87
2022/02/23 08:07:30;;;;;;;14.98;8.27;;;7.20;78.30;;;;;;4997813;28;20202;-88
2022/02/23 08:09:56;;;;;;;17.93;8.10;;;7.40;78.20;;;;;;4997689;28;20178;-87
2022/02/23 08:12:22;;;;;;;23.02;8.40;;;7.40;78.00;;;;;;4997918;28;20413;-88
2022/02/23 08:14:48;;;;;;;21.02;8.73;;;7.50;78.60;;;;;;5014661;28;20236;-88
2022/02/23 08:19:58;;;;;;;19.30;8.98;;;7.70;77.60;;;;;;5014791;28;20448;-88
2022/02/23 08:22:29;;;;;;;16.97;7.60;;;7.60;77.20;;;;;;4998435;28;20207;-88
2022/02/23 08:24:56;;;;;;;16.88;9.45;;;7.50;77.20;;;;;;4999219;28;20170;-88
2022/02/23 08:27:23;;;;;;;12.00;8.73;;;7.70;77.40;;;;;;5001031;28;20213;-88
2022/02/23 08:29:53;;;;;;;12.10;6.85;;;7.80;77.30;;;;;;5001301;28;20205;-88
2022/02/23 08:32:20;;;;;;;21.75;8.25;;;7.80;77.10;;;;;;5000119;28;20175;-88
2022/02/23 08:34:48;;;;;;;19.08;7.70;;;7.90;76.90;;;;;;4996651;28;20182;-88
2022/02/23 08:37:15;;;;;;;20.15;8.82;;;8.00;76.70;;;;;;4997684;28;20182;-88
2022/02/23 08:39:43;;;;;;;21.45;9.02;;;8.10;76.60;;;;;;4997249;28;20182;-88
2022/02/23 08:42:11;;;;;;;20.13;6.88;;;8.10;76.30;;;;;;4997139;28;20641;-88
2022/02/23 08:44:37;;;;;;;21.33;8.30;;;8.20;76.10;;;;;;5001857;28;20171;-88
2022/02/23 08:47:04;;;;;;;13.75;7.05;;;8.30;75.80;;;;;;4999310;28;20369;-88
2022/02/23 08:49:30;;;;;;;27.73;8.20;;;8.40;75.50;;;;;;4997419;28;20171;-88
2022/02/23 08:51:56;;;;;;;16.65;7.13;;;8.30;75.10;;;;;;4998142;28;20197;-88
2022/02/23 08:54:22;;;;;;;17.80;6.63;;;8.10;75.20;;;;;;5000515;28;20198;-89
2022/02/23 08:56:49;;;;;;;14.60;6.68;;;8.10;75.60;;;;;;4996524;28;20429;-88
2022/02/23 08:59:15;;;;;;;10.48;6.07;;;8.20;75.70;;;;;;5014377;28;20174;-88
2022/02/23 09:01:42;;;;;;;18.13;7.88;;;8.10;75.50;;;;;;5014228;28;20174;-87
2022/02/23 09:04:08;;;;;;;29.73;7.40;;;8.00;75.90;;;;;;4995869;28;20644;-88
2022/02/23 09:06:36;;;;;;;11.48;5.82;;;8.10;76.30;;;;;;4997076;28;20230;-88
2022/02/23 09:09:07;;;;;;;19.13;7.10;;;7.90;76.20;;;;;;4997066;28;20274;-87
2022/02/23 09:11:33;;;;;;;18.05;6.88;;;8.30;76.60;;;;;;5014526;28;20270;-88
2022/02/23 09:14:01;;;;;;;17.17;6.90;;;8.40;76.20;;;;;;4996154;28;20217;-87
2022/02/23 09:16:27;;;;;;;11.90;5.60;;;8.60;75.80;;;;;;5014754;28;20163;-87
2022/02/23 09:18:52;;;;;;;11.27;6.30;;;8.60;75.10;;;;;;4997798;28;20208;-88
2022/02/23 09:21:18;;;;;;;25.60;7.07;;;8.80;74.90;;;;;;4989152;28;20274;-87
2022/02/23 09:23:44;;;;;;;18.83;6.10;;;8.80;74.90;;;;;;4977031;28;20783;-88
2022/02/23 09:26:10;;;;;;;19.47;5.80;;;9.00;74.40;;;;;;5009467;28;20236;-88
2022/02/23 09:28:37;;;;;;;17.63;6.30;;;8.90;73.80;;;;;;5014112;28;20464;-88
2022/02/23 09:31:12;;;;;;;18.77;4.45;;;9.00;73.90;;;;;;4996852;28;20175;-87
2022/02/23 09:33:38;;;;;;;13.30;5.20;;;9.10;73.80;;;;;;4996650;28;20194;-88
2022/02/23 09:36:04;;;;;;;13.55;5.35;;;9.00;73.10;;;;;;5015713;28;20516;-87
2022/02/23 09:38:31;;;;;;;17.00;5.43;;;9.10;73.00;;;;;;4997484;28;20183;-88
2022/02/23 09:40:59;;;;;;;20.15;6.53;;;9.20;72.80;;;;;;4997232;28;20212;-88
2022/02/23 09:43:26;;;;;;;10.45;5.32;;;9.40;72.50;;;;;;5015127;28;20921;-87
2022/02/23 09:45:53;;;;;;;12.70;4.68;;;9.40;72.10;;;;;;4997415;28;20206;-88
2022/02/23 09:48:24;;;;;;;10.15;4.15;;;9.10;71.60;;;;;;4999237;28;20214;-88
2022/02/23 09:50:50;;;;;;;17.13;5.32;;;9.20;72.20;;;;;;5000748;28;20713;-88
2022/02/23 09:53:17;;;;;;;18.35;5.88;;;9.40;72.40;;;;;;4999515;28;20251;-87
2022/02/23 09:55:43;;;;;;;17.52;5.72;;;9.60;72.10;;;;;;5004248;28;20171;-87
2022/02/23 09:58:10;;;;;;;22.42;5.75;;;9.60;71.40;;;;;;5012042;28;20198;-88
2022/02/23 10:00:36;;;;;;;15.32;5.10;;;9.50;70.80;;;;;;5016905;28;20246;-89
2022/02/23 10:03:03;;;;;;;21.92;5.32;;;9.70;70.90;;;;;;5013720;28;20805;-89
2022/02/23 10:05:40;;;;;;;14.90;6.20;;;9.90;70.70;;;;;;5021439;28;20590;-89
2022/02/23 10:08:09;;;;;;;16.33;5.60;;;10.00;70.50;;;;;;5000785;28;20304;-89
2022/02/23 10:10:36;;;;;;;17.63;5.63;;;10.00;70.40;;;;;;5018355;28;20178;-89
2022/02/23 10:13:03;;;;;;;15.57;5.80;;;10.10;70.20;;;;;;5001058;28;20202;-89
2022/02/23 10:15:31;;;;;;;14.73;4.82;;;10.30;69.20;;;;;;5001424;28;20642;-90
2022/02/23 10:18:08;;;;;;;19.13;4.35;;;10.10;68.30;;;;;;5018979;28;20186;-89
2022/02/23 10:20:39;;;;;;;14.20;4.80;;;10.00;68.40;;;;;;5002432;28;20784;-89
2022/02/23 10:23:18;;;;;;;15.48;4.63;;;10.10;68.50;;;;;;5000673;28;20206;-90
2022/02/23 10:25:52;;;;;;;16.90;4.60;;;10.30;68.30;;;;;;4990829;28;20230;-89
2022/02/23 10:28:23;;;;;;;11.35;4.10;;;10.00;67.30;;;;;;5001454;28;20199;-89
2022/02/23 10:30:55;;;;;;;11.90;5.35;;;10.10;67.80;;;;;;4982479;28;20213;-88
2022/02/23 10:33:26;;;;;;;8.10;3.30;;;10.20;68.00;;;;;;4980545;28;20207;-89
2022/02/23 10:36:02;;;;;;;11.95;3.65;;;10.30;67.80;;;;;;4998936;28;20820;-88
2022/02/23 10:39:09;;;;;;;15.45;4.30;;;10.40;67.00;;;;;;4981041;28;20190;-89
2022/02/23 10:41:37;;;;;;;14.60;4.70;;;10.50;66.80;;;;;;4989108;28;20643;-89
2022/02/23 10:44:08;;;;;;;10.80;3.65;;;10.20;65.50;;;;;;4998188;28;20215;-89
2022/02/23 10:46:37;;;;;;;17.88;3.15;;;10.40;65.80;;;;;;4999432;28;20179;-88
2022/02/23 10:49:03;;;;;;;11.70;3.15;;;10.50;65.50;;;;;;4982344;28;20206;-89
2022/02/23 10:51:32;;;;;;;10.35;3.70;;;10.50;65.00;;;;;;5012134;28;20199;-87
2022/02/23 10:54:09;;;;;;;11.88;4.20;;;10.60;64.90;;;;;;5011366;28;20207;-87
2022/02/23 10:56:40;;;;;;;18.23;4.40;;;10.60;64.30;;;;;;4980613;28;20181;-88
2022/02/23 10:59:15;;;;;;;18.83;3.55;;;10.80;64.10;;;;;;4980197;28;20203;-88
2022/02/23 11:01:47;;;;;;;13.07;4.03;;;11.10;64.00;;;;;;4997245;28;20151;-88
2022/02/23 11:04:13;;;;;;;9.25;3.40;;;11.00;63.10;;;;;;4977796;28;20203;-87
2022/02/23 11:06:40;;;;;;;11.95;3.40;;;10.90;63.10;;;;;;4978920;28;20255;-87
2022/02/23 11:09:07;;;;;;;9.57;3.40;;;10.70;62.90;;;;;;4978775;28;20211;-87
2022/02/23 11:11:34;;;;;;;13.73;3.60;;;10.60;63.10;;;;;;4979445;28;20175;-87
2022/02/23 11:14:01;;;;;;;10.57;2.65;;;10.80;63.70;;;;;;4978850;28;20286;-87
2022/02/23 11:16:29;;;;;;;8.52;2.78;;;11.00;63.00;;;;;;5011774;28;20728;-87
2022/02/23 11:19:04;;;;;;;12.88;4.13;;;11.10;62.90;;;;;;4980386;28;20186;-87
2022/02/23 11:21:34;;;;;;;13.68;3.50;;;11.10;62.60;;;;;;4989346;28;20177;-87
2022/02/23 11:24:03;;;;;;;19.60;3.38;;;11.00;62.30;;;;;;4999361;28;20252;-87
2022/02/23 11:26:32;;;;;;;12.30;2.95;;;11.30;62.60;;;;;;4999636;28;20659;-87
2022/02/23 11:29:16;;;;;;;15.90;5.40;;;11.40;62.50;;;;;;5001792;28;20272;-88
2022/02/23 11:31:42;;;;;;;10.05;3.58;;;11.50;61.80;;;;;;4999842;28;20184;-87
2022/02/23 11:34:09;;;;;;;12.33;3.03;;;11.40;61.10;;;;;;4999054;28;20195;-87
2022/02/23 11:36:42;;;;;;;12.25;3.10;;;11.60;61.10;;;;;;4998401;28;20171;-88
2022/02/23 11:39:20;;;;;;;14.52;2.80;;;11.30;61.00;;;;;;4999817;28;20186;-88
2022/02/23 11:41:52;;;;;;;12.70;3.25;;;11.50;61.70;;;;;;4998623;28;20191;-88
2022/02/23 11:44:20;;;;;;;13.38;3.22;;;11.80;60.60;;;;;;4998610;28;20222;-88
2022/02/23 11:47:19;;;;;;;5.57;2.45;;;11.90;60.00;;;;;;5016287;28;20220;-88
2022/02/23 11:49:54;;;;;;;8.63;3.08;;;12.00;59.40;;;;;;5001721;28;20212;-88
2022/02/23 11:52:23;;;;;;;9.43;3.10;;;12.10;59.30;;;;;;4999642;28;20178;-88
2022/02/23 11:55:05;;;;;;;8.25;3.08;;;12.10;59.50;;;;;;4999309;28;20236;-88
2022/02/23 11:57:49;;;;;;;8.70;3.53;;;12.10;59.60;;;;;;4998399;28;20175;-88
2022/02/23 12:00:17;;;;;;;12.05;3.53;;;11.90;58.60;;;;;;4979824;28;20191;-88
2022/02/23 12:03:06;;;;;;;11.35;2.80;;;11.50;58.80;;;;;;4981802;28;20203;-88
2022/02/23 12:05:32;;;;;;;12.05;3.95;;;12.00;59.30;;;;;;5002236;28;20190;-88
2022/02/23 12:07:59;;;;;;;12.40;3.87;;;12.20;59.50;;;;;;5001749;28;20214;-88
2022/02/23 12:10:30;;;;;;;7.53;2.63;;;12.30;59.30;;;;;;4999878;28;20170;-88
2022/02/23 12:12:57;;;;;;;10.63;3.13;;;12.40;57.50;;;;;;4985765;28;20202;-88
2022/02/23 12:15:33;;;;;;;4.20;2.33;;;12.60;56.80;;;;;;5002923;28;20579;-88
2022/02/23 12:18:16;;;;;;;4.55;2.60;;;12.10;55.10;;;;;;5002441;28;20185;-88
2022/02/23 12:20:45;;;;;;;8.88;2.88;;;12.30;56.00;;;;;;4997624;28;20189;-87
2022/02/23 12:23:17;;;;;;;14.13;2.63;;;12.70;56.10;;;;;;4997495;28;20210;-87
2022/02/23 12:25:56;;;;;;;6.65;2.00;;;12.90;55.40;;;;;;4997782;28;20178;-87
2022/02/23 12:28:32;;;;;;;8.52;2.53;;;12.90;53.60;;;;;;5015676;28;20619;-87
2022/02/23 12:31:24;;;;;;;9.68;2.70;;;12.60;52.80;;;;;;4998328;28;20162;-87
2022/02/23 12:33:56;;;;;;;3.30;1.60;;;12.90;53.30;;;;;;4998204;28;20232;-87
2022/02/23 12:36:39;;;;;;;4.88;2.10;;;12.90;52.90;;;;;;4997893;28;20839;-87
2022/02/23 12:39:13;;;;;;;14.80;2.10;;;12.90;52.10;;;;;;5017267;28;20170;-87
2022/02/23 12:41:40;;;;;;;10.30;2.35;;;13.00;51.70;;;;;;5001099;28;20182;-87
2022/02/23 12:44:09;;;;;;;4.10;2.17;;;12.90;51.90;;;;;;5007061;28;20222;-88
2022/02/23 12:46:53;;;;;;;8.65;1.90;;;12.90;51.00;;;;;;5026293;28;20179;-87
2022/02/23 12:49:21;;;;;;;8.50;1.90;;;13.00;51.20;;;;;;5027251;28;20174;-87
2022/02/23 12:51:49;;;;;;;8.25;2.28;;;13.00;51.70;;;;;;5031092;28;20178;-87